sensor_id;sensor_type;location;lat;lon;timestamp;P1;durP1;ratioP1;P2;durP2;ratioP2
65469;SDS011;52067;50.710;14.492;2022-08-06T00:02:08;4.88;;;2.10;;
65469;SDS011;52067;50.710;14.492;2022-08-06T00:04:34;3.35;;;2.00;;
65469;SDS011;52067;50.710;14.492;2022-08-06T00:06:59;3.55;;;2.10;;
65469;SDS011;52067;50.710;14.492;2022-08-06T00:09:25;5.25;;;2.03;;
65469;SDS011;52067;50.710;14.492;2022-08-06T00:11:58;5.22;;;2.08;;
65469;SDS011;52067;50.710;14.492;2022-08-06T00:14:28;4.45;;;2.50;;
65469;SDS011;52067;50.710;14.492;2022-08-06T00:16:55;5.97;;;2.20;;
65469;SDS011;52067;50.710;14.492;2022-08-06T00:19:21;5.45;;;2.17;;
65469;SDS011;52067;50.710;14.492;2022-08-06T00:21:46;4.05;;;1.90;;
65469;SDS011;52067;50.710;14.492;2022-08-06T00:24:13;3.38;;;2.10;;
65469;SDS011;52067;50.710;14.492;2022-08-06T00:26:39;4.68;;;2.60;;
65469;SDS011;52067;50.710;14.492;2022-08-06T00:29:05;7.22;;;2.50;;
65469;SDS011;52067;50.710;14.492;2022-08-06T00:31:30;4.97;;;2.30;;
65469;SDS011;52067;50.710;14.492;2022-08-06T00:33:56;6.55;;;2.28;;
65469;SDS011;52067;50.710;14.492;2022-08-06T00:36:23;3.80;;;2.05;;
65469;SDS011;52067;50.710;14.492;2022-08-06T00:38:50;3.20;;;2.30;;
65469;SDS011;52067;50.710;14.492;2022-08-06T00:41:15;4.70;;;2.38;;
65469;SDS011;52067;50.710;14.492;2022-08-06T00:43:41;3.33;;;2.05;;
65469;SDS011;52067;50.710;14.492;2022-08-06T00:46:07;4.40;;;2.25;;
65469;SDS011;52067;50.710;14.492;2022-08-06T00:48:33;5.45;;;2.40;;
65469;SDS011;52067;50.710;14.492;2022-08-06T00:50:58;2.88;;;1.88;;
65469;SDS011;52067;50.710;14.492;2022-08-06T00:53:24;5.00;;;2.10;;
65469;SDS011;52067;50.710;14.492;2022-08-06T00:55:49;6.28;;;2.08;;
65469;SDS011;52067;50.710;14.492;2022-08-06T00:58:15;5.15;;;1.90;;
65469;SDS011;52067;50.710;14.492;2022-08-06T01:00:40;3.00;;;2.00;;
65469;SDS011;52067;50.710;14.492;2022-08-06T01:03:05;3.95;;;2.30;;
65469;SDS011;52067;50.710;14.492;2022-08-06T01:05:31;3.83;;;2.10;;
65469;SDS011;52067;50.710;14.492;2022-08-06T01:07:56;5.13;;;2.30;;
65469;SDS011;52067;50.710;14.492;2022-08-06T01:10:22;3.70;;;2.15;;
65469;SDS011;52067;50.710;14.492;2022-08-06T01:12:47;5.18;;;2.10;;
65469;SDS011;52067;50.710;14.492;2022-08-06T01:15:13;8.38;;;2.47;;
65469;SDS011;52067;50.710;14.492;2022-08-06T01:17:40;4.90;;;2.10;;
65469;SDS011;52067;50.710;14.492;2022-08-06T01:20:17;4.15;;;2.10;;
65469;SDS011;52067;50.710;14.492;2022-08-06T01:28:26;4.05;;;2.00;;
65469;SDS011;52067;50.710;14.492;2022-08-06T01:31:02;4.65;;;2.33;;
65469;SDS011;52067;50.710;14.492;2022-08-06T01:33:31;3.95;;;2.40;;
65469;SDS011;52067;50.710;14.492;2022-08-06T01:36:04;4.10;;;2.58;;
65469;SDS011;52067;50.710;14.492;2022-08-06T01:38:47;3.50;;;1.95;;
65469;SDS011;52067;50.710;14.492;2022-08-06T01:41:16;4.22;;;2.50;;
65469;SDS011;52067;50.710;14.492;2022-08-06T01:44:08;5.18;;;2.70;;
65469;SDS011;52067;50.710;14.492;2022-08-06T01:46:36;7.65;;;2.80;;
65469;SDS011;52067;50.710;14.492;2022-08-06T01:49:07;3.92;;;2.80;;
65469;SDS011;52067;50.710;14.492;2022-08-06T01:51:34;5.10;;;2.75;;
65469;SDS011;52067;50.710;14.492;2022-08-06T01:54:03;6.43;;;2.78;;
65469;SDS011;52067;50.710;14.492;2022-08-06T01:56:31;4.72;;;3.15;;
65469;SDS011;52067;50.710;14.492;2022-08-06T01:58:59;3.90;;;2.70;;
65469;SDS011;52067;50.710;14.492;2022-08-06T02:01:26;4.82;;;2.47;;
65469;SDS011;52067;50.710;14.492;2022-08-06T02:03:54;3.60;;;2.42;;
65469;SDS011;52067;50.710;14.492;2022-08-06T02:06:21;4.65;;;2.97;;
65469;SDS011;52067;50.710;14.492;2022-08-06T02:08:50;5.03;;;2.70;;
65469;SDS011;52067;50.710;14.492;2022-08-06T02:11:17;5.53;;;2.88;;
65469;SDS011;52067;50.710;14.492;2022-08-06T02:13:42;7.50;;;3.38;;
65469;SDS011;52067;50.710;14.492;2022-08-06T02:16:10;5.60;;;3.00;;
65469;SDS011;52067;50.710;14.492;2022-08-06T02:18:37;7.85;;;3.05;;
65469;SDS011;52067;50.710;14.492;2022-08-06T02:21:07;7.00;;;3.05;;
65469;SDS011;52067;50.710;14.492;2022-08-06T02:23:35;5.10;;;3.40;;
65469;SDS011;52067;50.710;14.492;2022-08-06T02:26:02;6.45;;;3.45;;
65469;SDS011;52067;50.710;14.492;2022-08-06T02:28:29;5.68;;;3.10;;
65469;SDS011;52067;50.710;14.492;2022-08-06T02:30:56;8.27;;;3.25;;
65469;SDS011;52067;50.710;14.492;2022-08-06T02:33:23;10.43;;;3.92;;
65469;SDS011;52067;50.710;14.492;2022-08-06T02:35:49;7.15;;;3.50;;
65469;SDS011;52067;50.710;14.492;2022-08-06T02:38:23;6.78;;;3.58;;
65469;SDS011;52067;50.710;14.492;2022-08-06T02:40:53;7.80;;;3.63;;
65469;SDS011;52067;50.710;14.492;2022-08-06T02:43:24;7.30;;;3.38;;
65469;SDS011;52067;50.710;14.492;2022-08-06T02:48:51;5.47;;;3.30;;
65469;SDS011;52067;50.710;14.492;2022-08-06T02:51:32;9.15;;;3.17;;
65469;SDS011;52067;50.710;14.492;2022-08-06T02:56:37;4.38;;;2.90;;
65469;SDS011;52067;50.710;14.492;2022-08-06T02:59:07;6.03;;;3.03;;
65469;SDS011;52067;50.710;14.492;2022-08-06T03:01:37;4.53;;;2.60;;
65469;SDS011;52067;50.710;14.492;2022-08-06T03:04:06;5.78;;;3.13;;
65469;SDS011;52067;50.710;14.492;2022-08-06T03:06:33;5.60;;;3.00;;
65469;SDS011;52067;50.710;14.492;2022-08-06T03:09:01;5.18;;;3.30;;
65469;SDS011;52067;50.710;14.492;2022-08-06T03:11:29;5.50;;;3.70;;
65469;SDS011;52067;50.710;14.492;2022-08-06T03:13:58;6.95;;;3.20;;
65469;SDS011;52067;50.710;14.492;2022-08-06T03:16:26;4.43;;;3.00;;
65469;SDS011;52067;50.710;14.492;2022-08-06T03:18:53;4.07;;;3.05;;
65469;SDS011;52067;50.710;14.492;2022-08-06T03:21:19;5.22;;;2.70;;
65469;SDS011;52067;50.710;14.492;2022-08-06T03:23:46;4.35;;;2.72;;
65469;SDS011;52067;50.710;14.492;2022-08-06T03:26:13;5.70;;;3.08;;
65469;SDS011;52067;50.710;14.492;2022-08-06T03:28:39;3.90;;;3.08;;
65469;SDS011;52067;50.710;14.492;2022-08-06T03:31:05;4.88;;;3.10;;
65469;SDS011;52067;50.710;14.492;2022-08-06T03:33:32;5.97;;;3.00;;
65469;SDS011;52067;50.710;14.492;2022-08-06T03:35:59;4.53;;;3.22;;
65469;SDS011;52067;50.710;14.492;2022-08-06T03:38:27;6.70;;;3.30;;
65469;SDS011;52067;50.710;14.492;2022-08-06T03:40:57;5.38;;;3.40;;
65469;SDS011;52067;50.710;14.492;2022-08-06T03:43:24;5.38;;;3.80;;
65469;SDS011;52067;50.710;14.492;2022-08-06T03:45:51;5.28;;;3.38;;
65469;SDS011;52067;50.710;14.492;2022-08-06T03:48:20;5.90;;;3.60;;
65469;SDS011;52067;50.710;14.492;2022-08-06T03:50:49;4.40;;;2.97;;
65469;SDS011;52067;50.710;14.492;2022-08-06T03:53:23;4.47;;;2.95;;
65469;SDS011;52067;50.710;14.492;2022-08-06T03:55:52;6.80;;;3.15;;
65469;SDS011;52067;50.710;14.492;2022-08-06T03:58:20;8.45;;;2.92;;
65469;SDS011;52067;50.710;14.492;2022-08-06T04:00:51;3.40;;;2.30;;
65469;SDS011;52067;50.710;14.492;2022-08-06T04:03:20;5.95;;;2.42;;
65469;SDS011;52067;50.710;14.492;2022-08-06T04:05:46;8.50;;;2.60;;
65469;SDS011;52067;50.710;14.492;2022-08-06T04:08:12;5.97;;;2.22;;
65469;SDS011;52067;50.710;14.492;2022-08-06T04:10:39;6.50;;;2.50;;
65469;SDS011;52067;50.710;14.492;2022-08-06T04:13:08;5.10;;;2.55;;
65469;SDS011;52067;50.710;14.492;2022-08-06T04:15:35;4.75;;;2.60;;
65469;SDS011;52067;50.710;14.492;2022-08-06T04:18:02;5.40;;;2.38;;
65469;SDS011;52067;50.710;14.492;2022-08-06T04:20:30;5.65;;;2.60;;
65469;SDS011;52067;50.710;14.492;2022-08-06T04:22:58;5.82;;;2.80;;
65469;SDS011;52067;50.710;14.492;2022-08-06T04:25:23;4.32;;;2.60;;
65469;SDS011;52067;50.710;14.492;2022-08-06T04:27:52;3.65;;;2.30;;
65469;SDS011;52067;50.710;14.492;2022-08-06T04:30:18;2.85;;;2.30;;
65469;SDS011;52067;50.710;14.492;2022-08-06T04:32:45;5.38;;;2.42;;
65469;SDS011;52067;50.710;14.492;2022-08-06T04:35:11;8.40;;;2.30;;
65469;SDS011;52067;50.710;14.492;2022-08-06T04:37:37;4.82;;;2.13;;
65469;SDS011;52067;50.710;14.492;2022-08-06T04:40:03;3.83;;;1.90;;
65469;SDS011;52067;50.710;14.492;2022-08-06T04:42:31;3.10;;;1.90;;
65469;SDS011;52067;50.710;14.492;2022-08-06T04:44:57;4.07;;;2.03;;
65469;SDS011;52067;50.710;14.492;2022-08-06T04:47:22;3.10;;;2.10;;
65469;SDS011;52067;50.710;14.492;2022-08-06T04:49:48;3.35;;;1.95;;
65469;SDS011;52067;50.710;14.492;2022-08-06T04:52:21;3.22;;;2.00;;
65469;SDS011;52067;50.710;14.492;2022-08-06T04:57:15;3.97;;;2.13;;
65469;SDS011;52067;50.710;14.492;2022-08-06T04:59:40;2.72;;;1.77;;
65469;SDS011;52067;50.710;14.492;2022-08-06T05:02:06;2.67;;;1.80;;
65469;SDS011;52067;50.710;14.492;2022-08-06T05:04:32;4.97;;;2.13;;
65469;SDS011;52067;50.710;14.492;2022-08-06T05:07:06;4.88;;;1.77;;
65469;SDS011;52067;50.710;14.492;2022-08-06T05:09:57;4.70;;;1.90;;
65469;SDS011;52067;50.710;14.492;2022-08-06T05:12:32;6.85;;;1.85;;
65469;SDS011;52067;50.710;14.492;2022-08-06T05:15:05;3.35;;;1.70;;
65469;SDS011;52067;50.710;14.492;2022-08-06T05:17:33;2.60;;;1.70;;
65469;SDS011;52067;50.710;14.492;2022-08-06T05:20:04;3.22;;;1.70;;
65469;SDS011;52067;50.710;14.492;2022-08-06T05:22:36;2.93;;;1.90;;
65469;SDS011;52067;50.710;14.492;2022-08-06T05:25:02;5.85;;;1.90;;
65469;SDS011;52067;50.710;14.492;2022-08-06T05:27:29;4.35;;;1.77;;
65469;SDS011;52067;50.710;14.492;2022-08-06T05:29:55;3.78;;;1.92;;
65469;SDS011;52067;50.710;14.492;2022-08-06T05:32:21;4.15;;;2.33;;
65469;SDS011;52067;50.710;14.492;2022-08-06T05:34:46;4.47;;;2.00;;
65469;SDS011;52067;50.710;14.492;2022-08-06T05:37:11;2.75;;;2.00;;
65469;SDS011;52067;50.710;14.492;2022-08-06T05:39:37;5.22;;;2.10;;
65469;SDS011;52067;50.710;14.492;2022-08-06T05:42:02;5.13;;;1.98;;
65469;SDS011;52067;50.710;14.492;2022-08-06T05:44:28;5.13;;;2.22;;
65469;SDS011;52067;50.710;14.492;2022-08-06T05:46:55;4.88;;;2.33;;
65469;SDS011;52067;50.710;14.492;2022-08-06T05:49:28;3.55;;;2.42;;
65469;SDS011;52067;50.710;14.492;2022-08-06T05:52:57;3.00;;;2.28;;
65469;SDS011;52067;50.710;14.492;2022-08-06T05:58:01;5.03;;;2.75;;
65469;SDS011;52067;50.710;14.492;2022-08-06T06:00:31;3.55;;;1.88;;
65469;SDS011;52067;50.710;14.492;2022-08-06T06:02:58;3.95;;;2.47;;
65469;SDS011;52067;50.710;14.492;2022-08-06T06:05:25;3.90;;;2.58;;
65469;SDS011;52067;50.710;14.492;2022-08-06T06:07:52;3.33;;;2.15;;
65469;SDS011;52067;50.710;14.492;2022-08-06T06:10:20;4.90;;;2.20;;
65469;SDS011;52067;50.710;14.492;2022-08-06T06:12:47;4.10;;;2.05;;
65469;SDS011;52067;50.710;14.492;2022-08-06T06:15:14;2.50;;;1.80;;
65469;SDS011;52067;50.710;14.492;2022-08-06T06:25:52;4.00;;;1.63;;
65469;SDS011;52067;50.710;14.492;2022-08-06T06:33:47;7.78;;;1.90;;
65469;SDS011;52067;50.710;14.492;2022-08-06T06:36:30;2.53;;;1.50;;
65469;SDS011;52067;50.710;14.492;2022-08-06T06:39:11;5.30;;;2.00;;
65469;SDS011;52067;50.710;14.492;2022-08-06T06:42:05;4.80;;;1.77;;
65469;SDS011;52067;50.710;14.492;2022-08-06T06:44:37;6.05;;;1.83;;
65469;SDS011;52067;50.710;14.492;2022-08-06T06:47:14;2.97;;;1.65;;
65469;SDS011;52067;50.710;14.492;2022-08-06T06:49:53;2.90;;;1.60;;
65469;SDS011;52067;50.710;14.492;2022-08-06T06:52:36;2.13;;;1.40;;
65469;SDS011;52067;50.710;14.492;2022-08-06T06:55:06;2.30;;;1.40;;
65469;SDS011;52067;50.710;14.492;2022-08-06T07:00:37;3.75;;;1.40;;
65469;SDS011;52067;50.710;14.492;2022-08-06T07:03:04;1.95;;;1.10;;
65469;SDS011;52067;50.710;14.492;2022-08-06T07:05:32;4.20;;;1.30;;
65469;SDS011;52067;50.710;14.492;2022-08-06T07:07:59;1.85;;;1.08;;
65469;SDS011;52067;50.710;14.492;2022-08-06T07:10:27;3.28;;;1.20;;
65469;SDS011;52067;50.710;14.492;2022-08-06T07:12:55;2.70;;;1.23;;
65469;SDS011;52067;50.710;14.492;2022-08-06T07:15:22;1.10;;;1.00;;
65469;SDS011;52067;50.710;14.492;2022-08-06T07:17:49;2.75;;;1.10;;
65469;SDS011;52067;50.710;14.492;2022-08-06T07:20:17;2.85;;;1.20;;
65469;SDS011;52067;50.710;14.492;2022-08-06T07:22:46;3.95;;;0.98;;
65469;SDS011;52067;50.710;14.492;2022-08-06T07:25:13;1.00;;;0.90;;
65469;SDS011;52067;50.710;14.492;2022-08-06T07:27:40;1.00;;;0.90;;
65469;SDS011;52067;50.710;14.492;2022-08-06T07:30:09;4.30;;;0.88;;
65469;SDS011;52067;50.710;14.492;2022-08-06T07:32:36;1.35;;;0.90;;
65469;SDS011;52067;50.710;14.492;2022-08-06T07:35:05;4.78;;;1.02;;
65469;SDS011;52067;50.710;14.492;2022-08-06T07:37:32;4.10;;;0.90;;
65469;SDS011;52067;50.710;14.492;2022-08-06T07:40:00;1.33;;;1.00;;
65469;SDS011;52067;50.710;14.492;2022-08-06T07:42:27;2.78;;;0.82;;
65469;SDS011;52067;50.710;14.492;2022-08-06T07:44:55;1.08;;;0.90;;
65469;SDS011;52067;50.710;14.492;2022-08-06T07:47:25;1.90;;;0.80;;
65469;SDS011;52067;50.710;14.492;2022-08-06T07:49:55;1.88;;;0.80;;
65469;SDS011;52067;50.710;14.492;2022-08-06T07:52:22;0.70;;;0.70;;
65469;SDS011;52067;50.710;14.492;2022-08-06T07:54:50;2.20;;;0.80;;
65469;SDS011;52067;50.710;14.492;2022-08-06T07:57:17;2.00;;;0.80;;
65469;SDS011;52067;50.710;14.492;2022-08-06T07:59:44;0.85;;;0.85;;
65469;SDS011;52067;50.710;14.492;2022-08-06T08:02:10;1.10;;;0.90;;
65469;SDS011;52067;50.710;14.492;2022-08-06T08:04:37;1.23;;;0.75;;
65469;SDS011;52067;50.710;14.492;2022-08-06T08:07:21;1.92;;;0.75;;
65469;SDS011;52067;50.710;14.492;2022-08-06T08:09:48;2.40;;;0.90;;
65469;SDS011;52067;50.710;14.492;2022-08-06T08:12:15;1.00;;;0.77;;
65469;SDS011;52067;50.710;14.492;2022-08-06T08:14:42;1.35;;;0.88;;
65469;SDS011;52067;50.710;14.492;2022-08-06T08:17:09;1.65;;;0.73;;
65469;SDS011;52067;50.710;14.492;2022-08-06T08:19:35;1.90;;;0.75;;
65469;SDS011;52067;50.710;14.492;2022-08-06T08:22:02;0.70;;;0.70;;
65469;SDS011;52067;50.710;14.492;2022-08-06T08:24:31;0.60;;;0.60;;
65469;SDS011;52067;50.710;14.492;2022-08-06T08:26:57;1.20;;;0.77;;
65469;SDS011;52067;50.710;14.492;2022-08-06T08:29:24;0.80;;;0.80;;
65469;SDS011;52067;50.710;14.492;2022-08-06T08:31:49;1.95;;;0.70;;
65469;SDS011;52067;50.710;14.492;2022-08-06T08:34:15;2.05;;;1.15;;
65469;SDS011;52067;50.710;14.492;2022-08-06T08:36:40;1.58;;;0.80;;
65469;SDS011;52067;50.710;14.492;2022-08-06T08:39:06;4.53;;;0.80;;
65469;SDS011;52067;50.710;14.492;2022-08-06T08:41:33;1.27;;;0.85;;
65469;SDS011;52067;50.710;14.492;2022-08-06T08:44:05;0.52;;;0.52;;
65469;SDS011;52067;50.710;14.492;2022-08-06T08:46:37;2.67;;;0.88;;
65469;SDS011;52067;50.710;14.492;2022-08-06T08:49:05;1.05;;;0.70;;
65469;SDS011;52067;50.710;14.492;2022-08-06T08:51:36;0.75;;;0.63;;
65469;SDS011;52067;50.710;14.492;2022-08-06T08:54:05;2.47;;;0.80;;
65469;SDS011;52067;50.710;14.492;2022-08-06T08:56:32;1.30;;;0.75;;
65469;SDS011;52067;50.710;14.492;2022-08-06T08:58:59;1.88;;;1.02;;
65469;SDS011;52067;50.710;14.492;2022-08-06T09:01:25;1.85;;;0.80;;
65469;SDS011;52067;50.710;14.492;2022-08-06T09:03:51;1.38;;;0.80;;
65469;SDS011;52067;50.710;14.492;2022-08-06T09:06:16;1.33;;;0.82;;
65469;SDS011;52067;50.710;14.492;2022-08-06T09:08:42;1.52;;;0.90;;
65469;SDS011;52067;50.710;14.492;2022-08-06T09:11:09;1.00;;;0.90;;
65469;SDS011;52067;50.710;14.492;2022-08-06T09:13:35;0.85;;;0.80;;
65469;SDS011;52067;50.710;14.492;2022-08-06T09:16:00;1.45;;;0.88;;
65469;SDS011;52067;50.710;14.492;2022-08-06T09:18:26;1.65;;;0.90;;
65469;SDS011;52067;50.710;14.492;2022-08-06T09:20:52;3.08;;;0.80;;
65469;SDS011;52067;50.710;14.492;2022-08-06T09:23:17;1.40;;;0.75;;
65469;SDS011;52067;50.710;14.492;2022-08-06T09:25:47;1.23;;;0.80;;
65469;SDS011;52067;50.710;14.492;2022-08-06T09:28:58;1.48;;;0.80;;
65469;SDS011;52067;50.710;14.492;2022-08-06T09:31:13;3.22;;;0.80;;
65469;SDS011;52067;50.710;14.492;2022-08-06T09:33:41;1.13;;;0.80;;
65469;SDS011;52067;50.710;14.492;2022-08-06T09:38:54;1.05;;;0.70;;
65469;SDS011;52067;50.710;14.492;2022-08-06T09:41:23;1.10;;;0.80;;
65469;SDS011;52067;50.710;14.492;2022-08-06T09:43:51;1.67;;;0.85;;
65469;SDS011;52067;50.710;14.492;2022-08-06T09:46:18;1.15;;;0.70;;
65469;SDS011;52067;50.710;14.492;2022-08-06T09:49:00;4.22;;;0.80;;
65469;SDS011;52067;50.710;14.492;2022-08-06T09:51:27;1.58;;;0.80;;
65469;SDS011;52067;50.710;14.492;2022-08-06T09:53:54;0.75;;;0.70;;
65469;SDS011;52067;50.710;14.492;2022-08-06T09:56:20;0.50;;;0.50;;
65469;SDS011;52067;50.710;14.492;2022-08-06T09:58:46;1.08;;;0.70;;
65469;SDS011;52067;50.710;14.492;2022-08-06T10:03:45;0.85;;;0.60;;
65469;SDS011;52067;50.710;14.492;2022-08-06T10:06:12;1.02;;;0.80;;
65469;SDS011;52067;50.710;14.492;2022-08-06T10:08:39;0.70;;;0.70;;
65469;SDS011;52067;50.710;14.492;2022-08-06T10:11:06;3.90;;;0.80;;
65469;SDS011;52067;50.710;14.492;2022-08-06T10:13:32;2.22;;;0.65;;
65469;SDS011;52067;50.710;14.492;2022-08-06T10:16:00;0.60;;;0.60;;
65469;SDS011;52067;50.710;14.492;2022-08-06T10:23:32;1.38;;;0.80;;
65469;SDS011;52067;50.710;14.492;2022-08-06T10:25:59;0.73;;;0.70;;
65469;SDS011;52067;50.710;14.492;2022-08-06T10:28:27;1.00;;;0.80;;
65469;SDS011;52067;50.710;14.492;2022-08-06T10:30:53;3.40;;;0.95;;
65469;SDS011;52067;50.710;14.492;2022-08-06T10:33:19;1.30;;;0.70;;
65469;SDS011;52067;50.710;14.492;2022-08-06T10:35:48;2.58;;;0.80;;
65469;SDS011;52067;50.710;14.492;2022-08-06T10:38:21;0.85;;;0.77;;
65469;SDS011;52067;50.710;14.492;2022-08-06T10:40:50;2.08;;;0.70;;
65469;SDS011;52067;50.710;14.492;2022-08-06T10:43:18;0.50;;;0.50;;
65469;SDS011;52067;50.710;14.492;2022-08-06T10:45:44;2.10;;;0.77;;
65469;SDS011;52067;50.710;14.492;2022-08-06T10:48:11;0.80;;;0.80;;
65469;SDS011;52067;50.710;14.492;2022-08-06T10:50:37;0.68;;;0.68;;
65469;SDS011;52067;50.710;14.492;2022-08-06T10:53:04;0.75;;;0.73;;
65469;SDS011;52067;50.710;14.492;2022-08-06T10:55:30;0.73;;;0.73;;
65469;SDS011;52067;50.710;14.492;2022-08-06T10:57:58;1.23;;;0.70;;
65469;SDS011;52067;50.710;14.492;2022-08-06T11:00:23;3.20;;;0.73;;
65469;SDS011;52067;50.710;14.492;2022-08-06T11:02:57;0.60;;;0.60;;
65469;SDS011;52067;50.710;14.492;2022-08-06T11:05:36;1.17;;;0.80;;
65469;SDS011;52067;50.710;14.492;2022-08-06T11:16:07;0.77;;;0.70;;
65469;SDS011;52067;50.710;14.492;2022-08-06T11:18:32;0.75;;;0.70;;
65469;SDS011;52067;50.710;14.492;2022-08-06T11:20:58;0.70;;;0.70;;
65469;SDS011;52067;50.710;14.492;2022-08-06T11:23:29;1.50;;;1.05;;
65469;SDS011;52067;50.710;14.492;2022-08-06T11:25:56;0.70;;;0.70;;
65469;SDS011;52067;50.710;14.492;2022-08-06T11:30:59;3.97;;;0.80;;
65469;SDS011;52067;50.710;14.492;2022-08-06T11:36:03;0.90;;;0.70;;
65469;SDS011;52067;50.710;14.492;2022-08-06T11:41:20;1.38;;;0.80;;
65469;SDS011;52067;50.710;14.492;2022-08-06T11:59:26;0.93;;;0.80;;
65469;SDS011;52067;50.710;14.492;2022-08-06T12:01:53;6.90;;;0.77;;
65469;SDS011;52067;50.710;14.492;2022-08-06T12:09:46;1.33;;;0.90;;
65469;SDS011;52067;50.710;14.492;2022-08-06T12:14:54;0.68;;;0.68;;
65469;SDS011;52067;50.710;14.492;2022-08-06T12:17:24;0.82;;;0.70;;
65469;SDS011;52067;50.710;14.492;2022-08-06T12:19:52;2.00;;;0.70;;
65469;SDS011;52067;50.710;14.492;2022-08-06T12:22:19;4.30;;;0.73;;
65469;SDS011;52067;50.710;14.492;2022-08-06T12:24:48;1.25;;;0.73;;
65469;SDS011;52067;50.710;14.492;2022-08-06T12:27:14;0.85;;;0.70;;
65469;SDS011;52067;50.710;14.492;2022-08-06T12:29:41;6.70;;;0.85;;
65469;SDS011;52067;50.710;14.492;2022-08-06T12:32:20;1.80;;;0.93;;
65469;SDS011;52067;50.710;14.492;2022-08-06T12:34:47;0.82;;;0.70;;
65469;SDS011;52067;50.710;14.492;2022-08-06T12:37:13;1.25;;;1.05;;
65469;SDS011;52067;50.710;14.492;2022-08-06T12:39:39;1.10;;;0.80;;
65469;SDS011;52067;50.710;14.492;2022-08-06T12:42:24;0.70;;;0.70;;
65469;SDS011;52067;50.710;14.492;2022-08-06T12:44:51;0.80;;;0.80;;
65469;SDS011;52067;50.710;14.492;2022-08-06T12:47:16;2.10;;;0.90;;
65469;SDS011;52067;50.710;14.492;2022-08-06T12:49:42;0.80;;;0.80;;
65469;SDS011;52067;50.710;14.492;2022-08-06T12:52:14;2.13;;;0.90;;
65469;SDS011;52067;50.710;14.492;2022-08-06T12:54:45;0.70;;;0.70;;
65469;SDS011;52067;50.710;14.492;2022-08-06T12:59:47;2.13;;;0.75;;
65469;SDS011;52067;50.710;14.492;2022-08-06T13:02:14;0.88;;;0.80;;
65469;SDS011;52067;50.710;14.492;2022-08-06T13:04:41;1.23;;;0.80;;
65469;SDS011;52067;50.710;14.492;2022-08-06T13:07:10;2.28;;;1.25;;
65469;SDS011;52067;50.710;14.492;2022-08-06T13:09:37;1.38;;;0.80;;
65469;SDS011;52067;50.710;14.492;2022-08-06T13:14:48;3.42;;;1.00;;
65469;SDS011;52067;50.710;14.492;2022-08-06T13:17:18;1.85;;;0.70;;
65469;SDS011;52067;50.710;14.492;2022-08-06T13:19:49;1.02;;;0.80;;
65469;SDS011;52067;50.710;14.492;2022-08-06T13:22:19;0.88;;;0.80;;
65469;SDS011;52067;50.710;14.492;2022-08-06T13:24:44;1.15;;;0.88;;
65469;SDS011;52067;50.710;14.492;2022-08-06T13:27:10;2.67;;;0.80;;
65469;SDS011;52067;50.710;14.492;2022-08-06T13:29:35;0.65;;;0.65;;
65469;SDS011;52067;50.710;14.492;2022-08-06T13:32:05;1.00;;;0.90;;
65469;SDS011;52067;50.710;14.492;2022-08-06T13:34:44;0.77;;;0.77;;
65469;SDS011;52067;50.710;14.492;2022-08-06T13:37:14;2.30;;;1.00;;
65469;SDS011;52067;50.710;14.492;2022-08-06T13:39:50;1.55;;;0.90;;
65469;SDS011;52067;50.710;14.492;2022-08-06T13:42:16;1.77;;;0.85;;
65469;SDS011;52067;50.710;14.492;2022-08-06T13:44:43;0.88;;;0.70;;
65469;SDS011;52067;50.710;14.492;2022-08-06T13:47:10;1.05;;;0.80;;
65469;SDS011;52067;50.710;14.492;2022-08-06T13:49:41;1.67;;;1.00;;
65469;SDS011;52067;50.710;14.492;2022-08-06T13:52:07;1.20;;;0.80;;
65469;SDS011;52067;50.710;14.492;2022-08-06T13:54:33;3.00;;;0.70;;
65469;SDS011;52067;50.710;14.492;2022-08-06T13:56:59;3.60;;;0.80;;
65469;SDS011;52067;50.710;14.492;2022-08-06T13:59:26;0.70;;;0.70;;
65469;SDS011;52067;50.710;14.492;2022-08-06T14:01:54;0.70;;;0.70;;
65469;SDS011;52067;50.710;14.492;2022-08-06T14:04:22;1.80;;;0.80;;
65469;SDS011;52067;50.710;14.492;2022-08-06T14:06:50;0.55;;;0.55;;
65469;SDS011;52067;50.710;14.492;2022-08-06T14:09:16;5.32;;;0.80;;
65469;SDS011;52067;50.710;14.492;2022-08-06T14:11:43;0.63;;;0.63;;
65469;SDS011;52067;50.710;14.492;2022-08-06T14:14:08;1.90;;;0.70;;
65469;SDS011;52067;50.710;14.492;2022-08-06T14:16:34;1.08;;;0.80;;
65469;SDS011;52067;50.710;14.492;2022-08-06T14:18:59;1.40;;;0.70;;
65469;SDS011;52067;50.710;14.492;2022-08-06T14:21:25;0.82;;;0.70;;
65469;SDS011;52067;50.710;14.492;2022-08-06T14:23:50;1.70;;;0.90;;
65469;SDS011;52067;50.710;14.492;2022-08-06T14:26:16;2.80;;;0.80;;
65469;SDS011;52067;50.710;14.492;2022-08-06T14:28:41;2.50;;;0.90;;
65469;SDS011;52067;50.710;14.492;2022-08-06T14:31:06;1.10;;;0.82;;
65469;SDS011;52067;50.710;14.492;2022-08-06T14:33:33;0.73;;;0.70;;
65469;SDS011;52067;50.710;14.492;2022-08-06T14:35:59;1.15;;;0.80;;
65469;SDS011;52067;50.710;14.492;2022-08-06T14:38:24;1.85;;;0.88;;
65469;SDS011;52067;50.710;14.492;2022-08-06T14:40:49;0.85;;;0.60;;
65469;SDS011;52067;50.710;14.492;2022-08-06T14:43:33;1.42;;;0.80;;
65469;SDS011;52067;50.710;14.492;2022-08-06T14:46:17;3.50;;;0.77;;
65469;SDS011;52067;50.710;14.492;2022-08-06T14:48:43;0.77;;;0.52;;
65469;SDS011;52067;50.710;14.492;2022-08-06T14:51:08;1.58;;;0.82;;
65469;SDS011;52067;50.710;14.492;2022-08-06T14:53:34;1.90;;;0.90;;
65469;SDS011;52067;50.710;14.492;2022-08-06T14:55:59;0.98;;;0.80;;
65469;SDS011;52067;50.710;14.492;2022-08-06T14:58:24;1.38;;;0.80;;
65469;SDS011;52067;50.710;14.492;2022-08-06T15:00:50;2.03;;;0.80;;
65469;SDS011;52067;50.710;14.492;2022-08-06T15:03:16;2.38;;;0.82;;
65469;SDS011;52067;50.710;14.492;2022-08-06T15:05:43;1.58;;;1.00;;
65469;SDS011;52067;50.710;14.492;2022-08-06T15:08:10;1.05;;;0.77;;
65469;SDS011;52067;50.710;14.492;2022-08-06T15:10:35;1.73;;;0.80;;
65469;SDS011;52067;50.710;14.492;2022-08-06T15:13:02;2.92;;;0.85;;
65469;SDS011;52067;50.710;14.492;2022-08-06T15:15:28;1.35;;;0.70;;
65469;SDS011;52067;50.710;14.492;2022-08-06T15:17:54;3.00;;;0.70;;
65469;SDS011;52067;50.710;14.492;2022-08-06T15:20:19;1.00;;;0.63;;
65469;SDS011;52067;50.710;14.492;2022-08-06T15:22:45;0.80;;;0.60;;
65469;SDS011;52067;50.710;14.492;2022-08-06T15:25:10;1.45;;;0.60;;
65469;SDS011;52067;50.710;14.492;2022-08-06T15:27:35;1.15;;;0.70;;
65469;SDS011;52067;50.710;14.492;2022-08-06T15:30:01;3.22;;;0.77;;
65469;SDS011;52067;50.710;14.492;2022-08-06T15:32:27;0.60;;;0.60;;
65469;SDS011;52067;50.710;14.492;2022-08-06T15:34:52;0.47;;;0.45;;
65469;SDS011;52067;50.710;14.492;2022-08-06T15:37:18;5.70;;;0.60;;
65469;SDS011;52067;50.710;14.492;2022-08-06T15:39:46;0.85;;;0.60;;
65469;SDS011;52067;50.710;14.492;2022-08-06T15:42:12;0.50;;;0.50;;
65469;SDS011;52067;50.710;14.492;2022-08-06T15:44:37;1.48;;;0.60;;
65469;SDS011;52067;50.710;14.492;2022-08-06T15:47:06;0.88;;;0.55;;
65469;SDS011;52067;50.710;14.492;2022-08-06T15:49:31;0.80;;;0.80;;
65469;SDS011;52067;50.710;14.492;2022-08-06T15:51:58;1.25;;;0.70;;
65469;SDS011;52067;50.710;14.492;2022-08-06T15:54:23;3.67;;;0.70;;
65469;SDS011;52067;50.710;14.492;2022-08-06T15:56:49;4.93;;;0.60;;
65469;SDS011;52067;50.710;14.492;2022-08-06T15:59:14;1.55;;;0.90;;
65469;SDS011;52067;50.710;14.492;2022-08-06T16:01:40;4.05;;;0.80;;
65469;SDS011;52067;50.710;14.492;2022-08-06T16:04:06;1.40;;;0.70;;
65469;SDS011;52067;50.710;14.492;2022-08-06T16:06:31;1.08;;;0.60;;
65469;SDS011;52067;50.710;14.492;2022-08-06T16:08:58;0.60;;;0.60;;